Time;durP1;ratioP1;P1;durP2;ratioP2;P2;SDS_P1;SDS_P2;PMS_P1;PMS_P2;Temp;Humidity;BMP_temperature;BMP_pressure;BME280_temperature;BME280_humidity;BME280_pressure;Samples;Min_cycle;Max_cycle;Signal;HPM_P1;HPM_P2
2023/11/09 08:47:27;;;;;;;4.70;1.10;;;10.30;99.90;;;;;;4896446;23;20306;-73
2023/11/09 08:49:54;;;;;;;6.87;1.53;;;10.30;99.90;;;;;;4898108;29;20210;-72
2023/11/09 08:52:23;;;;;;;7.33;1.90;;;10.40;99.90;;;;;;4898122;29;20218;-74
2023/11/09 08:54:51;;;;;;;4.37;1.33;;;10.40;99.90;;;;;;4889224;29;20261;-73
2023/11/09 08:57:18;;;;;;;3.73;1.77;;;10.50;99.90;;;;;;4879530;29;20307;-72
2023/11/09 08:59:47;;;;;;;3.87;1.27;;;10.70;99.90;;;;;;4879584;29;20221;-73
2023/11/09 09:02:15;;;;;;;4.13;1.50;;;10.80;99.90;;;;;;4879468;29;20211;-75
2023/11/09 09:04:44;;;;;;;3.80;1.57;;;10.70;99.90;;;;;;4879161;29;20623;-74
2023/11/09 09:07:11;;;;;;;3.53;1.20;;;10.80;99.90;;;;;;4879131;29;20728;-77
2023/11/09 09:09:43;;;;;;;3.77;1.80;;;10.80;99.90;;;;;;4879433;29;20242;-75
2023/11/09 09:12:10;;;;;;;5.00;1.23;;;10.90;99.90;;;;;;4879339;29;20212;-75
2023/11/09 09:14:37;;;;;;;4.57;1.67;;;11.10;99.90;;;;;;4879287;29;20231;-75
2023/11/09 09:17:05;;;;;;;4.47;1.20;;;11.20;99.90;;;;;;4879056;29;20211;-76
2023/11/09 09:19:33;;;;;;;6.50;1.07;;;11.20;99.90;;;;;;4879157;29;20211;-77
2023/11/09 09:22:04;;;;;;;5.17;1.20;;;11.20;99.90;;;;;;4879212;29;20646;-75
2023/11/09 09:24:31;;;;;;;2.33;1.30;;;11.20;99.90;;;;;;4878978;29;20231;-75
2023/11/09 09:26:58;;;;;;;4.20;1.33;;;11.20;99.90;;;;;;4879131;29;20247;-78
2023/11/09 09:29:26;;;;;;;4.77;1.67;;;11.20;99.90;;;;;;4879149;29;20242;-77
2023/11/09 09:31:55;;;;;;;1.97;1.20;;;11.40;99.90;;;;;;4879233;29;20326;-74
2023/11/09 09:34:25;;;;;;;7.97;2.43;;;11.40;99.90;;;;;;4873341;29;20594;-73
2023/11/09 09:36:58;;;;;;;6.53;1.50;;;11.30;99.90;;;;;;4877137;29;20571;-76
2023/11/09 09:39:27;;;;;;;2.77;1.47;;;11.30;99.90;;;;;;4877420;29;20249;-73
2023/11/09 09:41:58;;;;;;;4.93;2.00;;;11.20;99.90;;;;;;4878011;29;20717;-76
2023/11/09 09:44:26;;;;;;;3.80;1.70;;;11.30;99.90;;;;;;4876998;29;20786;-76
2023/11/09 09:46:58;;;;;;;3.83;1.30;;;11.40;99.90;;;;;;4877218;29;20234;-74
2023/11/09 09:49:25;;;;;;;5.57;1.90;;;11.30;99.90;;;;;;4876619;29;20540;-74
2023/11/09 09:51:55;;;;;;;15.03;3.73;;;11.60;99.90;;;;;;4877406;29;20261;-76
2023/11/09 09:54:23;;;;;;;5.73;1.40;;;11.70;99.90;;;;;;4877129;29;20777;-72
2023/11/09 09:56:53;;;;;;;4.93;1.97;;;11.70;99.90;;;;;;4877150;29;20302;-73
2023/11/09 09:59:22;;;;;;;4.70;1.50;;;11.70;99.90;;;;;;4877627;29;20221;-72
2023/11/09 10:01:50;;;;;;;3.33;0.97;;;11.90;99.90;;;;;;4877009;29;20243;-76
2023/11/09 10:04:18;;;;;;;4.47;1.50;;;11.90;99.90;;;;;;4876510;29;20239;-73
2023/11/09 10:06:46;;;;;;;3.57;1.40;;;11.90;99.90;;;;;;4876665;29;20333;-73
2023/11/09 10:09:14;;;;;;;2.40;0.67;;;11.90;99.90;;;;;;4877114;29;20616;-76
2023/11/09 10:11:42;;;;;;;3.33;1.13;;;11.60;99.90;;;;;;4876787;29;20251;-74
2023/11/09 10:14:14;;;;;;;3.53;1.00;;;11.70;99.90;;;;;;4876427;29;20707;-74
2023/11/09 10:16:41;;;;;;;5.03;0.83;;;11.60;99.90;;;;;;4876813;29;20239;-74
2023/11/09 10:19:09;;;;;;;3.77;1.10;;;11.40;99.90;;;;;;4876175;29;20310;-77
2023/11/09 10:21:36;;;;;;;4.37;0.70;;;11.40;99.90;;;;;;4875885;29;20211;-76
2023/11/09 10:24:10;;;;;;;2.70;0.50;;;11.30;99.90;;;;;;4876790;29;20295;-73
2023/11/09 10:26:40;;;;;;;6.37;1.20;;;11.40;99.90;;;;;;4876262;29;20658;-77
2023/11/09 10:29:07;;;;;;;3.13;0.90;;;11.60;99.90;;;;;;4877145;29;20664;-73
2023/11/09 10:31:36;;;;;;;2.53;1.17;;;11.60;99.90;;;;;;4876949;29;20222;-73
2023/11/09 10:34:04;;;;;;;2.37;1.30;;;11.60;99.90;;;;;;4875940;29;20693;-74
2023/11/09 10:36:31;;;;;;;7.97;1.10;;;11.60;99.90;;;;;;4877024;29;20227;-75
2023/11/09 10:38:58;;;;;;;3.10;0.97;;;11.70;99.90;;;;;;4873111;29;20666;-75
2023/11/09 10:41:26;;;;;;;3.23;1.03;;;11.80;99.90;;;;;;4875761;29;20294;-71
2023/11/09 10:43:59;;;;;;;4.37;0.73;;;11.90;99.90;;;;;;4886894;29;20231;-75
2023/11/09 10:46:27;;;;;;;6.23;1.77;;;12.10;99.90;;;;;;4877250;29;20223;-73
2023/11/09 10:48:58;;;;;;;5.80;1.13;;;12.10;99.90;;;;;;4876360;29;20246;-73
2023/11/09 10:51:27;;;;;;;2.90;1.00;;;12.10;99.90;;;;;;4877458;29;20506;-74
2023/11/09 10:53:59;;;;;;;6.37;1.00;;;12.30;99.90;;;;;;4874760;29;20326;-73
2023/11/09 10:56:29;;;;;;;3.47;0.83;;;12.40;99.90;;;;;;4880120;29;20215;-77
2023/11/09 10:58:57;;;;;;;4.83;0.67;;;12.40;99.90;;;;;;4880361;29;20219;-73
2023/11/09 11:01:29;;;;;;;5.90;1.00;;;12.40;99.90;;;;;;4879947;29;20219;-72
2023/11/09 11:03:59;;;;;;;4.87;0.80;;;12.40;99.90;;;;;;4878675;29;20238;-72
2023/11/09 11:06:32;;;;;;;5.53;0.80;;;12.30;99.90;;;;;;4880364;29;20234;-72
2023/11/09 11:09:07;;;;;;;6.43;0.90;;;12.20;99.90;;;;;;4880498;29;20337;-72
2023/11/09 11:11:36;;;;;;;6.43;0.73;;;12.00;99.90;;;;;;4879142;29;20219;-72
2023/11/09 11:14:06;;;;;;;5.67;1.23;;;12.00;99.90;;;;;;4878761;29;20690;-72
2023/11/09 11:16:48;;;;;;;2.90;0.90;;;12.20;99.90;;;;;;4879637;29;20294;-72
2023/11/09 11:19:53;;;;;;;4.10;0.83;;;12.30;99.90;;;;;;4879157;29;20211;-74
2023/11/09 11:22:43;;;;;;;4.47;0.77;;;12.20;99.90;;;;;;4879550;29;20223;-75
2023/11/09 11:25:28;;;;;;;5.20;1.17;;;12.10;99.90;;;;;;4878575;29;20235;-73
2023/11/09 11:27:56;;;;;;;3.50;0.73;;;12.20;99.90;;;;;;4879314;29;20235;-70
2023/11/09 11:30:28;;;;;;;4.37;1.00;;;12.30;99.90;;;;;;4880913;29;20208;-73
2023/11/09 11:32:57;;;;;;;6.00;0.80;;;12.50;99.90;;;;;;4867753;29;20208;-75
2023/11/09 11:35:39;;;;;;;5.80;0.90;;;12.60;99.90;;;;;;4874714;29;20243;-71
2023/11/09 11:38:22;;;;;;;8.60;1.10;;;12.70;99.90;;;;;;4880605;29;20214;-72
2023/11/09 11:40:52;;;;;;;4.73;1.10;;;12.70;99.90;;;;;;4880171;29;20214;-72
2023/11/09 11:43:21;;;;;;;4.37;1.80;;;12.80;99.90;;;;;;4888835;29;20314;-72
2023/11/09 11:45:48;;;;;;;6.63;1.83;;;12.80;99.90;;;;;;4882620;29;20620;-71
2023/11/09 11:48:20;;;;;;;4.87;0.90;;;12.80;99.90;;;;;;4879912;29;20242;-72
2023/11/09 11:50:49;;;;;;;7.27;1.10;;;12.60;99.90;;;;;;4879934;29;20215;-71
2023/11/09 11:53:28;;;;;;;6.07;0.80;;;12.40;99.90;;;;;;4880349;29;20254;-71
2023/11/09 11:55:59;;;;;;;7.67;1.00;;;12.40;99.90;;;;;;4880404;29;20250;-72
2023/11/09 11:58:39;;;;;;;4.27;1.10;;;12.30;99.90;;;;;;4879526;29;20643;-72
2023/11/09 12:01:08;;;;;;;7.50;0.97;;;12.50;99.90;;;;;;4879760;29;20207;-71
2023/11/09 12:03:41;;;;;;;4.00;0.77;;;12.50;99.90;;;;;;4879601;29;20627;-71
2023/11/09 12:06:13;;;;;;;3.03;0.70;;;12.60;99.90;;;;;;4861697;29;20243;-70
2023/11/09 12:08:41;;;;;;;10.10;0.77;;;12.50;99.90;;;;;;4871226;29;20230;-71
2023/11/09 12:11:09;;;;;;;3.77;0.50;;;12.40;99.90;;;;;;4880233;29;20212;-70
2023/11/09 12:13:37;;;;;;;2.87;0.77;;;12.40;99.90;;;;;;4880277;29;20255;-70
2023/11/09 12:16:04;;;;;;;2.33;0.50;;;12.40;99.90;;;;;;4879845;29;20211;-71
2023/11/09 12:18:31;;;;;;;4.83;0.90;;;12.50;99.90;;;;;;4880050;29;20211;-74
2023/11/09 12:20:58;;;;;;;3.87;0.70;;;12.50;99.90;;;;;;4880215;29;20266;-71
2023/11/09 12:23:26;;;;;;;3.80;0.67;;;12.60;99.90;;;;;;4879876;29;20231;-70
2023/11/09 12:25:54;;;;;;;5.37;0.90;;;12.60;99.90;;;;;;4879859;29;20271;-70
2023/11/09 12:28:22;;;;;;;5.07;0.60;;;12.60;99.90;;;;;;4879735;29;20325;-76
2023/11/09 12:30:50;;;;;;;2.47;0.50;;;12.70;99.90;;;;;;4879929;29;20648;-71
2023/11/09 12:33:17;;;;;;;6.47;1.37;;;12.60;99.90;;;;;;4880209;29;20587;-71
2023/11/09 12:36:00;;;;;;;5.70;0.70;;;12.50;99.90;;;;;;4880258;29;20659;-70
2023/11/09 12:38:29;;;;;;;2.27;0.50;;;12.40;99.90;;;;;;4880068;29;20215;-71
2023/11/09 12:40:57;;;;;;;3.83;0.67;;;12.20;99.90;;;;;;4880376;29;20222;-70
2023/11/09 12:43:37;;;;;;;6.23;1.40;;;12.20;99.90;;;;;;4880002;29;20273;-69
2023/11/09 12:46:08;;;;;;;3.10;0.60;;;12.20;99.90;;;;;;4879909;29;20219;-70
2023/11/09 12:48:44;;;;;;;4.53;0.70;;;12.20;99.90;;;;;;4879438;29;20271;-70
2023/11/09 12:51:13;;;;;;;2.90;0.67;;;12.20;99.90;;;;;;4879769;29;20223;-70
2023/11/09 12:53:43;;;;;;;5.80;1.00;;;12.20;99.90;;;;;;4879860;29;20265;-70
2023/11/09 12:56:11;;;;;;;2.23;0.70;;;12.20;99.90;;;;;;4880024;29;20251;-71
2023/11/09 12:58:40;;;;;;;2.27;0.40;;;12.30;99.90;;;;;;4879574;29;20246;-73
2023/11/09 13:01:14;;;;;;;3.83;0.63;;;12.50;99.90;;;;;;4874606;29;20579;-76
2023/11/09 13:03:42;;;;;;;3.23;0.50;;;12.60;99.90;;;;;;4879095;29;20825;-71
2023/11/09 13:06:12;;;;;;;5.97;0.90;;;12.70;99.90;;;;;;4879715;29;20207;-70
2023/11/09 13:08:42;;;;;;;2.93;0.50;;;12.70;99.90;;;;;;4879401;29;20246;-70
2023/11/09 13:11:12;;;;;;;2.17;0.70;;;12.80;99.90;;;;;;4862755;29;20247;-72
2023/11/09 13:13:49;;;;;;;3.83;0.50;;;12.70;99.90;;;;;;4860579;29;20707;-71
2023/11/09 13:16:18;;;;;;;4.33;0.70;;;12.70;99.90;;;;;;4860191;29;20250;-71
2023/11/09 13:18:50;;;;;;;1.50;0.50;;;12.60;99.90;;;;;;4872841;29;20670;-71
2023/11/09 13:21:19;;;;;;;6.47;0.90;;;12.60;99.90;;;;;;4878942;29;20310;-71
2023/11/09 13:23:47;;;;;;;5.60;1.87;;;12.50;99.90;;;;;;4879329;29;20227;-73
2023/11/09 13:26:22;;;;;;;7.00;0.70;;;12.30;99.90;;;;;;4878955;29;20215;-73
2023/11/09 13:28:49;;;;;;;7.27;0.70;;;12.20;99.90;;;;;;4878924;29;20246;-70
2023/11/09 13:31:23;;;;;;;7.37;0.73;;;12.20;99.90;;;;;;4877064;29;20306;-71
2023/11/09 13:33:51;;;;;;;4.23;0.60;;;12.20;99.90;;;;;;4873671;29;20717;-71
2023/11/09 13:36:29;;;;;;;4.50;1.03;;;12.20;99.90;;;;;;4873865;29;20215;-71
2023/11/09 13:39:33;;;;;;;1.33;0.30;;;12.20;99.90;;;;;;4873298;29;20215;-74
2023/11/09 13:42:00;;;;;;;7.10;0.80;;;12.20;99.90;;;;;;4873188;29;20319;-71
2023/11/09 13:44:27;;;;;;;2.97;0.50;;;12.00;99.90;;;;;;4876040;29;20306;-72
2023/11/09 13:46:59;;;;;;;2.20;0.53;;;12.10;99.90;;;;;;4865798;29;20621;-71
2023/11/09 13:49:29;;;;;;;2.77;0.60;;;12.10;99.90;;;;;;4863880;29;20239;-72
2023/11/09 13:52:18;;;;;;;4.60;0.90;;;12.10;99.90;;;;;;4878699;29;20207;-71
2023/11/09 13:54:49;;;;;;;5.70;0.87;;;12.10;99.90;;;;;;4883146;29;20222;-72
2023/11/09 13:57:20;;;;;;;2.97;1.00;;;12.00;99.90;;;;;;4891551;29;20207;-75
2023/11/09 13:59:58;;;;;;;2.20;0.60;;;11.90;99.90;;;;;;4866765;29;20238;-71
2023/11/09 14:02:29;;;;;;;3.63;0.50;;;11.80;99.90;;;;;;4878500;29;20751;-72
2023/11/09 14:05:04;;;;;;;4.50;0.60;;;11.90;99.90;;;;;;4878600;29;20231;-76
2023/11/09 14:07:33;;;;;;;2.30;1.00;;;11.80;99.90;;;;;;4878813;29;20237;-72
2023/11/09 14:10:04;;;;;;;2.93;1.27;;;11.90;99.90;;;;;;4878948;29;20554;-70
2023/11/09 14:15:23;;;;;;;6.20;0.73;;;12.00;99.90;;;;;;4878412;29;20235;-72
2023/11/09 14:17:51;;;;;;;3.07;0.73;;;12.00;99.90;;;;;;4878752;29;20211;-74
2023/11/09 14:20:30;;;;;;;4.30;0.60;;;12.00;99.90;;;;;;4878313;29;20294;-72
2023/11/09 14:22:58;;;;;;;4.47;0.93;;;12.00;99.90;;;;;;4878049;29;20218;-72
2023/11/09 14:25:26;;;;;;;4.03;0.50;;;11.90;99.90;;;;;;4878284;29;20732;-72
2023/11/09 14:27:53;;;;;;;1.10;0.50;;;11.90;99.90;;;;;;4878927;29;20211;-75
2023/11/09 14:30:30;;;;;;;6.83;1.40;;;11.90;99.90;;;;;;4881946;29;20243;-71
2023/11/09 14:33:00;;;;;;;4.33;0.57;;;11.90;99.90;;;;;;4882109;29;20222;-73
2023/11/09 14:35:28;;;;;;;3.00;1.00;;;11.90;99.90;;;;;;4882140;29;20264;-72
2023/11/09 14:37:56;;;;;;;4.27;0.77;;;11.90;99.90;;;;;;4882240;29;20266;-73
2023/11/09 14:40:26;;;;;;;6.03;0.83;;;11.80;99.90;;;;;;4881733;29;20226;-71
2023/11/09 14:42:56;;;;;;;5.03;1.03;;;11.80;99.90;;;;;;4882201;29;20749;-71
2023/11/09 14:45:26;;;;;;;5.03;0.80;;;11.80;99.90;;;;;;4881667;29;20215;-73
2023/11/09 14:47:53;;;;;;;3.20;0.80;;;11.80;99.90;;;;;;4882188;29;20226;-72
2023/11/09 14:50:21;;;;;;;3.83;0.60;;;11.80;99.90;;;;;;4882051;29;20671;-72
2023/11/09 14:53:14;;;;;;;2.57;0.60;;;11.80;99.90;;;;;;4881264;29;20683;-72
2023/11/09 14:55:42;;;;;;;3.67;0.87;;;11.80;99.90;;;;;;4881666;29;20246;-72
2023/11/09 14:58:14;;;;;;;2.37;0.67;;;11.70;99.90;;;;;;4882278;29;20211;-71
2023/11/09 15:00:44;;;;;;;2.53;0.80;;;11.60;99.90;;;;;;4881805;29;20215;-72
2023/11/09 15:03:18;;;;;;;8.57;1.30;;;11.50;99.90;;;;;;4881502;29;20235;-71
2023/11/09 15:05:49;;;;;;;3.57;0.60;;;11.40;99.90;;;;;;4881379;29;20207;-74
2023/11/09 15:08:17;;;;;;;2.13;0.60;;;11.40;99.90;;;;;;4881159;29;20706;-72
2023/11/09 15:10:44;;;;;;;1.93;0.50;;;11.30;99.90;;;;;;4881246;29;20222;-71
2023/11/09 15:13:13;;;;;;;4.13;0.40;;;11.20;99.90;;;;;;4881413;29;20766;-74
2023/11/09 15:15:43;;;;;;;5.17;0.87;;;11.10;99.90;;;;;;4878347;29;20595;-74
2023/11/09 15:18:10;;;;;;;3.43;0.80;;;11.00;99.90;;;;;;4879076;29;20211;-74
2023/11/09 15:20:38;;;;;;;4.87;1.00;;;10.90;99.90;;;;;;4880452;29;20655;-74
2023/11/09 15:23:06;;;;;;;2.63;0.60;;;10.80;99.90;;;;;;4879715;29;20226;-74
2023/11/09 15:25:33;;;;;;;3.17;0.50;;;10.80;99.90;;;;;;4879437;29;20215;-73
2023/11/09 15:28:01;;;;;;;6.67;0.97;;;10.80;99.90;;;;;;4879770;29;20567;-73
2023/11/09 15:30:29;;;;;;;7.90;1.37;;;10.70;99.90;;;;;;4880007;29;20211;-73
2023/11/09 15:32:57;;;;;;;1.87;0.70;;;10.80;99.90;;;;;;4881205;29;20211;-74
2023/11/09 15:35:26;;;;;;;2.33;0.70;;;10.80;99.90;;;;;;4880939;29;20675;-74
2023/11/09 15:37:56;;;;;;;4.80;0.70;;;10.80;99.90;;;;;;4881522;29;20666;-74
2023/11/09 15:40:24;;;;;;;3.13;0.70;;;10.80;99.90;;;;;;4880957;29;20244;-74
2023/11/09 15:42:52;;;;;;;2.97;1.00;;;10.80;99.90;;;;;;4881245;29;20571;-73
2023/11/09 15:45:23;;;;;;;1.57;0.70;;;10.70;99.90;;;;;;4881081;29;20211;-73
2023/11/09 15:47:52;;;;;;;3.43;0.80;;;10.70;99.90;;;;;;4880611;29;20273;-74
2023/11/09 15:50:21;;;;;;;3.50;0.40;;;10.70;99.90;;;;;;4881184;29;20239;-72
2023/11/09 15:52:50;;;;;;;1.13;0.30;;;10.40;99.90;;;;;;4880707;29;20663;-71
2023/11/09 15:55:19;;;;;;;0.73;0.20;;;10.20;99.90;;;;;;4880896;29;20239;-71
2023/11/09 15:57:50;;;;;;;0.37;0.20;;;9.90;99.90;;;;;;4880710;29;20286;-72
2023/11/09 16:00:19;;;;;;;0.47;0.20;;;9.70;99.90;;;;;;4880412;29;20218;-71
2023/11/09 16:02:47;;;;;;;1.27;0.50;;;9.50;99.90;;;;;;4880560;29;20211;-71
2023/11/09 16:05:18;;;;;;;0.87;0.30;;;9.30;99.90;;;;;;4880852;29;20302;-72
2023/11/09 16:07:47;;;;;;;1.90;0.30;;;9.10;99.90;;;;;;4880420;29;20800;-71
2023/11/09 16:10:18;;;;;;;1.00;0.60;;;9.10;99.90;;;;;;4880182;29;20250;-71
2023/11/09 16:12:45;;;;;;;1.80;0.80;;;9.10;99.90;;;;;;4880461;29;20276;-71
2023/11/09 16:15:12;;;;;;;1.07;0.60;;;9.00;99.90;;;;;;4881028;29;20647;-71
2023/11/09 16:17:39;;;;;;;1.70;0.47;;;9.10;99.90;;;;;;4880469;29;20239;-71
2023/11/09 16:20:12;;;;;;;1.10;0.50;;;9.00;99.90;;;;;;4880491;29;20258;-71
2023/11/09 16:22:42;;;;;;;1.50;0.60;;;9.00;99.90;;;;;;4880552;29;20263;-71
2023/11/09 16:25:17;;;;;;;2.97;0.70;;;9.00;99.90;;;;;;4880324;29;20227;-77
2023/11/09 16:27:45;;;;;;;1.80;0.70;;;9.00;99.90;;;;;;4880487;29;20211;-77
2023/11/09 16:30:19;;;;;;;3.50;1.07;;;8.90;99.90;;;;;;4880261;29;20243;-71
2023/11/09 16:32:46;;;;;;;1.20;0.53;;;8.80;99.90;;;;;;4880044;29;20294;-71
2023/11/09 16:35:13;;;;;;;1.40;0.40;;;8.80;99.90;;;;;;4880213;29;20274;-71
2023/11/09 16:37:41;;;;;;;0.77;0.40;;;8.70;99.90;;;;;;4880228;29;20207;-71
2023/11/09 16:40:09;;;;;;;0.50;0.30;;;8.70;99.90;;;;;;4880244;29;20294;-71
2023/11/09 16:42:37;;;;;;;2.50;0.70;;;8.60;99.90;;;;;;4880443;29;20263;-71
2023/11/09 16:45:06;;;;;;;0.60;0.33;;;8.60;99.90;;;;;;4880187;29;20234;-72
2023/11/09 16:47:33;;;;;;;0.87;0.50;;;8.60;99.90;;;;;;4879886;29;20302;-71
2023/11/09 16:50:01;;;;;;;0.90;0.40;;;8.60;99.90;;;;;;4879848;29;20299;-73
2023/11/09 16:52:28;;;;;;;4.23;2.13;;;8.50;99.90;;;;;;4879667;29;20218;-72
2023/11/09 16:54:57;;;;;;;1.80;0.40;;;8.60;99.90;;;;;;4880053;29;20231;-72
2023/11/09 16:57:24;;;;;;;0.80;0.40;;;8.60;99.90;;;;;;4879859;29;20215;-72
2023/11/09 16:59:51;;;;;;;4.13;0.40;;;8.60;99.90;;;;;;4880115;29;20211;-72
2023/11/09 17:02:19;;;;;;;1.70;0.63;;;8.60;99.90;;;;;;4879717;29;20210;-71
2023/11/09 17:04:46;;;;;;;4.40;2.13;;;8.60;99.90;;;;;;4879556;29;20256;-72
2023/11/09 17:07:15;;;;;;;4.40;0.77;;;8.60;99.90;;;;;;4879910;29;20243;-73
2023/11/09 17:09:41;;;;;;;1.90;0.77;;;8.50;99.90;;;;;;4879341;29;20710;-71
2023/11/09 17:12:10;;;;;;;2.83;1.10;;;8.50;99.90;;;;;;4879656;29;20245;-73
2023/11/09 17:14:37;;;;;;;2.70;0.90;;;8.60;99.90;;;;;;4878751;29;20236;-71
2023/11/09 17:17:10;;;;;;;2.97;0.63;;;8.60;99.90;;;;;;4868840;29;20331;-70
2023/11/09 17:19:38;;;;;;;0.77;0.40;;;8.60;99.90;;;;;;4860392;29;20244;-72
2023/11/09 17:22:06;;;;;;;1.17;0.50;;;8.50;99.90;;;;;;4866436;29;20220;-72
2023/11/09 17:24:33;;;;;;;0.47;0.40;;;8.50;99.90;;;;;;4878535;29;20706;-71
2023/11/09 17:27:00;;;;;;;1.03;0.50;;;8.50;99.90;;;;;;4872594;29;20235;-71
2023/11/09 17:29:28;;;;;;;1.67;0.70;;;8.50;99.90;;;;;;4867316;29;20803;-71
2023/11/09 17:31:55;;;;;;;1.07;0.40;;;8.50;99.90;;;;;;4874744;29;20323;-70
2023/11/09 17:34:23;;;;;;;0.80;0.40;;;8.50;99.90;;;;;;4871926;29;20310;-71
2023/11/09 17:36:51;;;;;;;1.00;0.30;;;8.30;99.90;;;;;;4880054;29;20698;-71
2023/11/09 17:39:18;;;;;;;2.50;0.30;;;8.30;99.90;;;;;;4877660;29;20229;-72
2023/11/09 17:41:45;;;;;;;0.87;0.40;;;8.30;99.90;;;;;;4878072;29;20210;-71
2023/11/09 17:44:12;;;;;;;1.67;1.00;;;8.30;99.90;;;;;;4877361;29;20231;-71
2023/11/09 17:46:42;;;;;;;0.93;0.37;;;8.30;99.90;;;;;;4880042;29;20219;-72
2023/11/09 17:49:09;;;;;;;1.17;0.40;;;8.20;99.90;;;;;;4877003;29;20725;-72
2023/11/09 17:51:36;;;;;;;1.30;0.50;;;8.20;99.90;;;;;;4876978;29;20697;-72
2023/11/09 17:54:04;;;;;;;1.00;0.50;;;8.10;99.90;;;;;;4876443;29;20227;-73
2023/11/09 17:56:32;;;;;;;1.37;0.70;;;8.20;99.90;;;;;;4875575;29;20207;-71
2023/11/09 17:58:59;;;;;;;1.00;0.67;;;8.20;99.90;;;;;;4872537;29;20248;-72
2023/11/09 18:01:29;;;;;;;2.30;0.77;;;8.20;99.90;;;;;;4871395;29;20235;-72
2023/11/09 18:03:58;;;;;;;0.73;0.57;;;8.10;99.90;;;;;;4875166;29;20319;-72
2023/11/09 18:06:29;;;;;;;0.70;0.43;;;8.10;99.90;;;;;;4881577;29;20207;-73
2023/11/09 18:08:58;;;;;;;1.60;1.07;;;8.00;99.90;;;;;;4881723;29;20209;-74
2023/11/09 18:11:27;;;;;;;1.87;0.50;;;8.00;99.90;;;;;;4884150;29;20211;-73
2023/11/09 18:13:53;;;;;;;3.40;0.63;;;7.90;99.90;;;;;;4881505;29;20853;-71
2023/11/09 18:16:21;;;;;;;0.90;0.50;;;8.00;99.90;;;;;;4882172;29;20238;-72
2023/11/09 18:18:48;;;;;;;0.87;0.40;;;7.90;99.90;;;;;;4881734;29;20262;-73
2023/11/09 18:21:16;;;;;;;2.03;0.50;;;7.90;99.90;;;;;;4882032;29;20219;-70
2023/11/09 18:23:43;;;;;;;0.70;0.50;;;7.90;99.90;;;;;;4882225;29;20250;-70
2023/11/09 18:26:11;;;;;;;1.07;0.60;;;7.80;99.90;;;;;;4881899;29;20221;-71
2023/11/09 18:28:38;;;;;;;1.03;0.50;;;7.80;99.90;;;;;;4881932;29;20207;-70
2023/11/09 18:31:06;;;;;;;1.00;0.53;;;7.70;99.90;;;;;;4881937;29;20295;-71
2023/11/09 18:33:34;;;;;;;0.80;0.40;;;7.70;99.90;;;;;;4876088;29;20287;-70
2023/11/09 18:36:02;;;;;;;0.97;0.70;;;7.80;99.90;;;;;;4875549;29;20227;-79
2023/11/09 18:38:30;;;;;;;2.43;0.77;;;7.70;99.90;;;;;;4880999;29;20207;-70
2023/11/09 18:40:57;;;;;;;1.63;0.93;;;7.70;99.90;;;;;;4881781;29;20751;-70
2023/11/09 18:43:25;;;;;;;1.87;1.17;;;7.80;99.90;;;;;;4881823;29;20304;-70
2023/11/09 18:45:53;;;;;;;0.63;0.50;;;7.80;99.90;;;;;;4881993;29;20298;-71
2023/11/09 18:48:20;;;;;;;2.60;0.93;;;7.70;99.90;;;;;;4881114;29;20215;-73
2023/11/09 18:50:47;;;;;;;3.17;1.63;;;7.70;99.90;;;;;;4881060;29;20402;-69
2023/11/09 18:53:14;;;;;;;1.80;0.90;;;7.70;99.90;;;;;;4880430;29;20219;-70
2023/11/09 18:55:42;;;;;;;0.70;0.60;;;7.70;99.90;;;;;;4867171;29;20672;-70
2023/11/09 18:58:09;;;;;;;2.17;0.77;;;7.70;99.90;;;;;;4881432;29;20211;-70
2023/11/09 19:00:36;;;;;;;1.70;0.73;;;7.70;99.90;;;;;;4881298;29;20211;-69
2023/11/09 19:03:03;;;;;;;1.67;0.70;;;7.60;99.90;;;;;;4881423;29;20254;-70
2023/11/09 19:05:32;;;;;;;2.50;0.70;;;7.60;99.90;;;;;;4880594;29;20211;-70
2023/11/09 19:07:58;;;;;;;1.33;0.73;;;7.60;99.90;;;;;;4881174;29;20233;-72
2023/11/09 19:10:25;;;;;;;2.33;0.63;;;7.60;99.90;;;;;;4881101;29;20740;-68
2023/11/09 19:12:56;;;;;;;1.97;0.70;;;7.60;99.90;;;;;;4880880;29;20655;-74
2023/11/09 19:15:25;;;;;;;2.53;0.90;;;7.60;99.90;;;;;;4880038;29;20314;-69
2023/11/09 19:17:54;;;;;;;3.13;0.57;;;7.60;99.90;;;;;;4880951;29;20215;-69
2023/11/09 19:20:21;;;;;;;2.53;0.80;;;7.60;99.90;;;;;;4880536;29;20215;-69
2023/11/09 19:22:50;;;;;;;0.80;0.60;;;7.60;99.90;;;;;;4880981;29;20243;-70
2023/11/09 19:25:17;;;;;;;1.13;0.40;;;7.70;99.90;;;;;;4880298;29;20257;-71
2023/11/09 19:27:45;;;;;;;0.70;0.50;;;7.70;99.90;;;;;;4879132;29;20256;-69
2023/11/09 19:30:19;;;;;;;1.33;0.70;;;7.70;99.90;;;;;;4867194;29;20239;-70
2023/11/09 19:32:47;;;;;;;3.53;0.60;;;7.70;99.90;;;;;;4880836;29;20248;-75
2023/11/09 19:35:14;;;;;;;1.57;0.40;;;7.70;99.90;;;;;;4880777;29;20314;-70
2023/11/09 19:37:42;;;;;;;1.53;0.80;;;7.70;99.90;;;;;;4881033;29;20219;-71
2023/11/09 19:40:10;;;;;;;1.43;0.50;;;7.70;99.90;;;;;;4880603;29;20579;-71
2023/11/09 19:42:38;;;;;;;1.60;0.60;;;7.60;99.90;;;;;;4880459;29;20218;-70
2023/11/09 19:45:06;;;;;;;3.53;0.60;;;7.70;99.90;;;;;;4880740;29;20242;-74
2023/11/09 19:47:35;;;;;;;3.27;1.20;;;7.60;99.90;;;;;;4880491;29;20226;-71
2023/11/09 19:50:01;;;;;;;0.70;0.50;;;7.70;99.90;;;;;;4868518;29;20239;-70
2023/11/09 19:52:29;;;;;;;1.97;0.73;;;7.60;99.90;;;;;;4880510;29;20275;-71
2023/11/09 19:54:57;;;;;;;1.40;1.13;;;7.60;99.90;;;;;;4880303;29;20227;-71
2023/11/09 19:57:24;;;;;;;2.60;0.80;;;7.60;99.90;;;;;;4880210;29;20211;-71
2023/11/09 19:59:51;;;;;;;1.53;0.80;;;7.50;99.90;;;;;;4868964;29;20218;-72
2023/11/09 20:02:20;;;;;;;0.90;0.67;;;7.50;99.90;;;;;;4875417;29;20216;-70
2023/11/09 20:04:48;;;;;;;3.07;1.30;;;7.40;99.90;;;;;;4869736;29;20300;-71
2023/11/09 20:07:15;;;;;;;1.37;0.73;;;7.50;99.90;;;;;;4879903;29;20250;-71
2023/11/09 20:09:42;;;;;;;3.10;1.00;;;7.50;99.90;;;;;;4879254;29;20218;-70
2023/11/09 20:12:09;;;;;;;1.20;0.80;;;7.60;99.90;;;;;;4879774;29;20219;-70
2023/11/09 20:14:36;;;;;;;1.20;0.80;;;7.60;99.90;;;;;;4880064;29;20231;-74
2023/11/09 20:17:03;;;;;;;1.77;1.00;;;7.60;99.90;;;;;;4879963;29;20212;-70
2023/11/09 20:19:30;;;;;;;3.10;0.70;;;7.70;99.90;;;;;;4879789;29;20214;-72
2023/11/09 20:21:59;;;;;;;2.80;0.40;;;7.70;99.90;;;;;;4879666;29;20267;-73
2023/11/09 20:24:27;;;;;;;5.33;0.90;;;7.60;99.90;;;;;;4879581;29;20266;-70
2023/11/09 20:26:56;;;;;;;1.10;0.70;;;7.70;99.90;;;;;;4879178;29;20215;-71
2023/11/09 20:29:24;;;;;;;1.10;0.70;;;7.70;99.90;;;;;;4879700;29;20219;-70
2023/11/09 20:31:51;;;;;;;2.23;1.03;;;7.70;99.90;;;;;;4879677;29;20291;-70
2023/11/09 20:34:17;;;;;;;2.33;1.00;;;7.80;99.90;;;;;;4879853;29;20227;-76
2023/11/09 20:36:44;;;;;;;2.90;1.00;;;7.80;99.90;;;;;;4871801;29;20632;-71
2023/11/09 20:39:13;;;;;;;2.50;0.90;;;7.80;99.90;;;;;;4871314;29;20239;-73
2023/11/09 20:41:41;;;;;;;2.10;1.00;;;7.80;99.90;;;;;;4878891;29;20214;-71
2023/11/09 20:44:08;;;;;;;3.37;0.80;;;7.90;99.90;;;;;;4879479;29;20587;-70
2023/11/09 20:46:37;;;;;;;1.17;0.63;;;7.90;99.90;;;;;;4879101;29;20298;-71
2023/11/09 20:51:42;;;;;;;1.43;0.63;;;7.90;99.90;;;;;;4896438;29;20286;-78
2023/11/09 20:54:11;;;;;;;1.67;0.80;;;7.90;99.90;;;;;;4900048;29;20322;-77
2023/11/09 20:56:40;;;;;;;1.47;0.70;;;7.90;99.90;;;;;;4892465;29;20215;-76
2023/11/09 20:59:09;;;;;;;2.30;1.30;;;7.90;99.90;;;;;;4894023;29;20218;-77
2023/11/09 21:01:36;;;;;;;1.97;1.00;;;8.00;99.90;;;;;;4890954;29;20678;-74
2023/11/09 21:04:03;;;;;;;1.93;1.67;;;7.90;99.90;;;;;;4893359;29;20732;-77
2023/11/09 21:06:30;;;;;;;2.17;1.27;;;7.90;99.90;;;;;;4897962;29;20547;-76
2023/11/09 21:08:59;;;;;;;2.47;1.00;;;7.90;99.90;;;;;;4897790;29;20686;-77
2023/11/09 21:11:28;;;;;;;5.17;1.13;;;7.80;99.90;;;;;;4884150;29;20253;-77
2023/11/09 21:14:01;;;;;;;3.40;1.13;;;7.80;99.90;;;;;;4895642;29;20285;-77
2023/11/09 21:16:28;;;;;;;1.57;0.70;;;7.80;99.90;;;;;;4898896;29;20237;-77
2023/11/09 21:18:54;;;;;;;1.77;0.80;;;7.90;99.90;;;;;;4897486;29;20289;-77
2023/11/09 21:21:21;;;;;;;0.90;0.70;;;7.80;99.90;;;;;;4899134;29;20242;-77
2023/11/09 21:23:48;;;;;;;0.63;0.43;;;7.90;99.90;;;;;;4897823;29;20226;-77
2023/11/09 21:26:19;;;;;;;5.10;0.77;;;7.90;99.90;;;;;;4888496;29;20207;-77
2023/11/09 21:28:46;;;;;;;2.70;0.83;;;7.90;99.90;;;;;;4897248;29;20392;-77
2023/11/09 21:31:18;;;;;;;1.33;0.50;;;7.90;99.90;;;;;;4898917;29;20290;-77
2023/11/09 21:33:45;;;;;;;1.83;0.77;;;7.90;99.90;;;;;;4899810;29;20230;-77
2023/11/09 21:36:13;;;;;;;1.10;0.80;;;7.90;99.90;;;;;;4901440;29;20217;-77
2023/11/09 21:38:40;;;;;;;1.10;0.70;;;7.90;99.90;;;;;;4902758;29;20207;-77
2023/11/09 21:41:07;;;;;;;4.23;1.00;;;7.90;99.90;;;;;;4904615;29;20252;-76
2023/11/09 21:43:34;;;;;;;2.77;0.83;;;7.90;99.90;;;;;;4911490;29;20237;-76
2023/11/09 21:46:01;;;;;;;1.17;0.67;;;7.90;99.90;;;;;;4906126;29;20226;-74
2023/11/09 21:48:29;;;;;;;1.80;0.70;;;8.00;99.90;;;;;;4919018;29;20218;-74
2023/11/09 21:50:59;;;;;;;2.60;0.80;;;8.10;99.90;;;;;;4909084;29;20242;-77
2023/11/09 21:53:26;;;;;;;2.97;0.93;;;8.00;99.90;;;;;;4898268;29;20234;-76